Time;durP1;ratioP1;P1;durP2;ratioP2;P2;SDS_P1;SDS_P2;PMS_P1;PMS_P2;Temp;Humidity;BMP_temperature;BMP_pressure;BME280_temperature;BME280_humidity;BME280_pressure;Samples;Min_cycle;Max_cycle;Signal;HPM_P1;HPM_P2
2024/01/20 00:00:25;;;;;;;;;;;;;;;;;;4996893;28;19926;-80
2024/01/20 00:02:52;;;;;;;;;;;;;;;;;;4999058;28;20020;-81
2024/01/20 00:05:19;;;;;;;;;;;;;;;;;;4996678;28;19933;-82
2024/01/20 00:07:46;;;;;;;;;;;;;;;;;;4997827;28;19926;-80
2024/01/20 00:10:13;;;;;;;;;;;;;;;;;;4999740;28;19926;-79
2024/01/20 00:12:40;;;;;;;;;;;;;;;;;;4997347;28;19926;-81
2024/01/20 00:15:08;;;;;;;;;;;;;;;;;;4998310;28;20053;-80
2024/01/20 00:17:35;;;;;;;;;;;;;;;;;;5001823;28;19974;-82
2024/01/20 00:20:02;;;;;;;;;;;;;;;;;;5001314;28;20471;-82
2024/01/20 00:22:29;;;;;;;;;;;;;;;;;;4994619;28;19970;-80
2024/01/20 00:24:59;;;;;;;;;;;;;;;;;;5000037;28;19929;-80
2024/01/20 00:27:26;;;;;;;;;;;;;;;;;;4997530;28;19986;-84
2024/01/20 00:29:53;;;;;;;;;;;;;;;;;;4997606;28;19933;-83
2024/01/20 00:32:20;;;;;;;;;;;;;;;;;;5003878;28;19991;-83
2024/01/20 00:34:47;;;;;;;;;;;;;;;;;;5002006;28;21384;-82
2024/01/20 00:37:14;;;;;;;;;;;;;;;;;;4998324;28;19926;-82
2024/01/20 00:39:41;;;;;;;;;;;;;;;;;;4998498;28;19926;-82
2024/01/20 00:42:08;;;;;;;;;;;;;;;;;;4995110;28;19933;-82
2024/01/20 00:44:35;;;;;;;;;;;;;;;;;;4997744;28;19933;-81
2024/01/20 00:47:02;;;;;;;;;;;;;;;;;;4999642;28;19926;-83
2024/01/20 00:49:29;;;;;;;;;;;;;;;;;;4998587;28;19930;-84
2024/01/20 00:51:56;;;;;;;;;;;;;;;;;;4998087;28;20340;-83
2024/01/20 00:54:23;;;;;;;;;;;;;;;;;;4999621;28;19926;-83
2024/01/20 00:56:50;;;;;;;;;;;;;;;;;;5002533;28;19986;-83
2024/01/20 00:59:17;;;;;;;;;;;;;;;;;;4994187;28;20441;-82
2024/01/20 01:01:44;;;;;;;;;;;;;;;;;;4996127;28;20292;-82
2024/01/20 01:04:11;;;;;;;;;;;;;;;;;;4996814;28;19934;-84
2024/01/20 01:06:38;;;;;;;;;;;;;;;;;;4997581;28;19933;-81
2024/01/20 01:09:05;;;;;;;;;;;;;;;;;;5002712;28;19925;-81
2024/01/20 01:11:32;;;;;;;;;;;;;;;;;;5004175;28;20375;-83
2024/01/20 01:14:00;;;;;;;;;;;;;;;;;;5002356;28;19926;-84
2024/01/20 01:16:27;;;;;;;;;;;;;;;;;;5004147;28;19926;-82
2024/01/20 01:18:54;;;;;;;;;;;;;;;;;;5000498;28;19979;-81
2024/01/20 01:21:21;;;;;;;;;;;;;;;;;;5004533;28;19926;-82
2024/01/20 01:23:48;;;;;;;;;;;;;;;;;;4997583;28;19925;-82
2024/01/20 01:26:15;;;;;;;;;;;;;;;;;;5001478;28;19926;-84
2024/01/20 01:28:42;;;;;;;;;;;;;;;;;;5002592;28;20028;-82
2024/01/20 01:31:09;;;;;;;;;;;;;;;;;;5001863;28;19933;-83
2024/01/20 01:33:37;;;;;;;;;;;;;;;;;;4997704;28;19973;-84
2024/01/20 01:36:04;;;;;;;;;;;;;;;;;;4998107;28;19926;-81
2024/01/20 01:38:31;;;;;;;;;;;;;;;;;;5001518;28;19926;-81
2024/01/20 01:40:58;;;;;;;;;;;;;;;;;;5005742;28;20036;-82
2024/01/20 01:43:26;;;;;;;;;;;;;;;;;;4998448;28;19979;-81
2024/01/20 01:45:53;;;;;;;;;;;;;;;;;;4997527;28;19934;-83
2024/01/20 01:48:20;;;;;;;;;;;;;;;;;;5003042;28;19926;-83
2024/01/20 01:50:47;;;;;;;;;;;;;;;;;;5002633;28;20534;-81
2024/01/20 01:53:14;;;;;;;;;;;;;;;;;;5003258;28;19938;-82
2024/01/20 01:55:43;;;;;;;;;;;;;;;;;;5007184;28;19933;-84
2024/01/20 01:58:10;;;;;;;;;;;;;;;;;;5008068;28;20005;-82
2024/01/20 02:00:37;;;;;;;;;;;;;;;;;;5006059;28;19930;-80
2024/01/20 02:03:04;;;;;;;;;;;;;;;;;;5004420;28;19945;-83
2024/01/20 02:05:31;;;;;;;;;;;;;;;;;;5001350;28;19929;-82
2024/01/20 02:07:58;;;;;;;;;;;;;;;;;;5000945;28;20544;-84
2024/01/20 02:10:25;;;;;;;;;;;;;;;;;;4999959;28;19979;-84
2024/01/20 02:12:52;;;;;;;;;;;;;;;;;;4989846;28;19926;-84
2024/01/20 02:15:19;;;;;;;;;;;;;;;;;;4995139;28;19926;-83
2024/01/20 02:17:46;;;;;;;;;;;;;;;;;;4993015;28;19964;-83
2024/01/20 02:20:13;;;;;;;;;;;;;;;;;;4994356;28;19926;-82
2024/01/20 02:22:41;;;;;;;;;;;;;;;;;;4994277;28;20092;-84
2024/01/20 02:25:08;;;;;;;;;;;;;;;;;;5007006;28;20404;-82
2024/01/20 02:27:35;;;;;;;;;;;;;;;;;;5025287;28;19926;-82
2024/01/20 02:30:02;;;;;;;;;;;;;;;;;;4996913;28;19987;-82
2024/01/20 02:32:29;;;;;;;;;;;;;;;;;;4995037;28;20338;-84
2024/01/20 02:34:56;;;;;;;;;;;;;;;;;;4995343;28;19987;-82
2024/01/20 02:37:23;;;;;;;;;;;;;;;;;;4994637;28;19926;-84
2024/01/20 02:39:50;;;;;;;;;;;;;;;;;;4994623;28;19926;-82
2024/01/20 02:42:17;;;;;;;;;;;;;;;;;;4992988;28;19925;-82
2024/01/20 02:44:44;;;;;;;;;;;;;;;;;;4994743;28;19933;-84
2024/01/20 02:47:11;;;;;;;;;;;;;;;;;;5002431;28;19925;-85
2024/01/20 02:49:38;;;;;;;;;;;;;;;;;;4998816;28;19926;-83
2024/01/20 02:52:05;;;;;;;;;;;;;;;;;;4993323;28;19971;-81
2024/01/20 02:54:32;;;;;;;;;;;;;;;;;;4993338;28;19971;-82
2024/01/20 02:56:59;;;;;;;;;;;;;;;;;;4993550;28;19925;-83
2024/01/20 02:59:26;;;;;;;;;;;;;;;;;;4983550;28;19930;-83
2024/01/20 03:01:53;;;;;;;;;;;;;;;;;;4990723;28;19926;-84
2024/01/20 03:04:20;;;;;;;;;;;;;;;;;;4994836;28;19926;-82
2024/01/20 03:06:47;;;;;;;;;;;;;;;;;;4993290;28;19932;-81
2024/01/20 03:09:14;;;;;;;;;;;;;;;;;;4992201;28;20912;-84
2024/01/20 03:11:42;;;;;;;;;;;;;;;;;;4994307;28;19926;-83
2024/01/20 03:14:09;;;;;;;;;;;;;;;;;;4995133;28;19925;-82
2024/01/20 03:16:36;;;;;;;;;;;;;;;;;;4993643;28;19948;-83
2024/01/20 03:19:03;;;;;;;;;;;;;;;;;;4987376;28;19952;-81
2024/01/20 03:21:30;;;;;;;;;;;;;;;;;;4992685;28;19925;-83
2024/01/20 03:23:57;;;;;;;;;;;;;;;;;;4992768;28;20335;-83
2024/01/20 03:26:24;;;;;;;;;;;;;;;;;;4993682;28;20573;-83
2024/01/20 03:28:51;;;;;;;;;;;;;;;;;;4992457;28;20393;-83
2024/01/20 03:31:19;;;;;;;;;;;;;;;;;;4993520;28;19926;-83
2024/01/20 03:33:46;;;;;;;;;;;;;;;;;;5018068;28;20388;-82
2024/01/20 03:36:13;;;;;;;;;;;;;;;;;;4993446;28;20384;-83
2024/01/20 03:38:40;;;;;;;;;;;;;;;;;;4994039;28;19926;-82
2024/01/20 03:41:07;;;;;;;;;;;;;;;;;;5010625;28;19924;-83
2024/01/20 03:43:34;;;;;;;;;;;;;;;;;;4995795;28;19926;-83
2024/01/20 03:46:01;;;;;;;;;;;;;;;;;;4994778;28;19926;-82
2024/01/20 03:48:28;;;;;;;;;;;;;;;;;;4994078;28;19926;-83
2024/01/20 03:50:55;;;;;;;;;;;;;;;;;;4994563;28;19929;-81
2024/01/20 03:53:22;;;;;;;;;;;;;;;;;;4993153;28;19929;-84
2024/01/20 03:55:49;;;;;;;;;;;;;;;;;;4995480;28;20377;-83
2024/01/20 03:58:16;;;;;;;;;;;;;;;;;;4990673;28;20046;-84
2024/01/20 04:00:44;;;;;;;;;;;;;;;;;;4991762;28;19926;-81
2024/01/20 04:03:11;;;;;;;;;;;;;;;;;;4991936;28;19977;-78
2024/01/20 04:05:39;;;;;;;;;;;;;;;;;;4991586;28;19934;-79
2024/01/20 04:08:06;;;;;;;;;;;;;;;;;;4991399;28;20372;-81
2024/01/20 04:10:33;;;;;;;;;;;;;;;;;;4991564;28;19926;-80
2024/01/20 04:13:00;;;;;;;;;;;;;;;;;;4990615;28;20002;-79
2024/01/20 04:15:27;;;;;;;;;;;;;;;;;;4990626;28;19925;-80
2024/01/20 04:17:54;;;;;;;;;;;;;;;;;;4991629;28;19926;-80
2024/01/20 04:20:23;;;;;;;;;;;;;;;;;;4990453;28;21329;-79
2024/01/20 04:22:50;;;;;;;;;;;;;;;;;;4991841;28;19926;-81
2024/01/20 04:25:17;;;;;;;;;;;;;;;;;;4991750;28;19979;-81
2024/01/20 04:27:44;;;;;;;;;;;;;;;;;;4991742;28;19925;-82
2024/01/20 04:30:11;;;;;;;;;;;;;;;;;;4996461;28;19929;-80
2024/01/20 04:32:38;;;;;;;;;;;;;;;;;;4992819;28;19926;-82
2024/01/20 04:35:06;;;;;;;;;;;;;;;;;;4994218;28;20026;-79
2024/01/20 04:37:33;;;;;;;;;;;;;;;;;;4996296;28;19954;-82
2024/01/20 04:40:00;;;;;;;;;;;;;;;;;;4996093;28;19933;-78
2024/01/20 04:42:27;;;;;;;;;;;;;;;;;;4995586;28;20350;-81
2024/01/20 04:44:54;;;;;;;;;;;;;;;;;;4997579;28;19926;-82
2024/01/20 04:47:21;;;;;;;;;;;;;;;;;;4997700;28;19926;-79
2024/01/20 04:49:51;;;;;;;;;;;;;;;;;;4991077;28;19926;-82
2024/01/20 04:52:18;;;;;;;;;;;;;;;;;;4996224;28;19973;-80
2024/01/20 04:54:45;;;;;;;;;;;;;;;;;;4992155;28;19979;-79
2024/01/20 04:57:12;;;;;;;;;;;;;;;;;;4991427;28;20381;-79
2024/01/20 04:59:39;;;;;;;;;;;;;;;;;;4990394;28;19971;-77
2024/01/20 05:02:06;;;;;;;;;;;;;;;;;;4991772;28;19926;-81
2024/01/20 05:04:33;;;;;;;;;;;;;;;;;;4990239;28;19926;-81
2024/01/20 05:07:00;;;;;;;;;;;;;;;;;;4991098;28;19979;-83
2024/01/20 05:09:27;;;;;;;;;;;;;;;;;;4990373;28;20377;-80
2024/01/20 05:11:54;;;;;;;;;;;;;;;;;;4992034;28;19925;-82
2024/01/20 05:14:21;;;;;;;;;;;;;;;;;;4992034;28;19926;-80
2024/01/20 05:16:48;;;;;;;;;;;;;;;;;;4991628;28;19946;-81
2024/01/20 05:19:15;;;;;;;;;;;;;;;;;;4991995;28;19925;-82
2024/01/20 05:21:42;;;;;;;;;;;;;;;;;;4993554;28;19929;-83
2024/01/20 05:24:10;;;;;;;;;;;;;;;;;;4992874;28;19978;-79
2024/01/20 05:26:37;;;;;;;;;;;;;;;;;;4993255;28;19926;-81
2024/01/20 05:29:04;;;;;;;;;;;;;;;;;;4992533;28;19933;-80
2024/01/20 05:31:32;;;;;;;;;;;;;;;;;;4991779;28;20442;-81
2024/01/20 05:34:00;;;;;;;;;;;;;;;;;;4991788;28;19925;-83
2024/01/20 05:36:27;;;;;;;;;;;;;;;;;;4991728;28;19930;-83
2024/01/20 05:38:54;;;;;;;;;;;;;;;;;;4985557;28;19926;-83
2024/01/20 05:41:21;;;;;;;;;;;;;;;;;;4991338;28;19925;-81
2024/01/20 05:43:48;;;;;;;;;;;;;;;;;;4990404;28;20462;-82
2024/01/20 05:46:15;;;;;;;;;;;;;;;;;;4997892;28;19965;-82
2024/01/20 05:48:42;;;;;;;;;;;;;;;;;;4992066;28;19960;-84
2024/01/20 05:51:09;;;;;;;;;;;;;;;;;;4998180;28;19925;-83
2024/01/20 05:53:36;;;;;;;;;;;;;;;;;;5000545;28;19955;-82
2024/01/20 05:56:03;;;;;;;;;;;;;;;;;;4995028;28;19937;-82
2024/01/20 05:58:30;;;;;;;;;;;;;;;;;;5078708;28;19924;-82
2024/01/20 06:00:57;;;;;;;;;;;;;;;;;;5043975;28;20448;-83
2024/01/20 06:03:26;;;;;;;;;;;;;;;;;;4995501;28;19926;-84
2024/01/20 06:05:53;;;;;;;;;;;;;;;;;;4996857;28;20060;-82
2024/01/20 06:08:20;;;;;;;;;;;;;;;;;;4996022;28;20426;-86
2024/01/20 06:10:47;;;;;;;;;;;;;;;;;;4994746;28;19926;-84
2024/01/20 06:13:14;;;;;;;;;;;;;;;;;;4995713;28;19930;-83
2024/01/20 06:15:41;;;;;;;;;;;;;;;;;;4995584;28;19926;-83
2024/01/20 06:18:08;;;;;;;;;;;;;;;;;;4996340;28;19926;-83
2024/01/20 06:20:35;;;;;;;;;;;;;;;;;;5035990;28;19994;-82
2024/01/20 06:23:02;;;;;;;;;;;;;;;;;;4995352;28;20274;-83
2024/01/20 06:25:29;;;;;;;;;;;;;;;;;;4995308;28;19926;-82
2024/01/20 06:27:56;;;;;;;;;;;;;;;;;;4995269;28;19941;-83
2024/01/20 06:30:23;;;;;;;;;;;;;;;;;;4993702;28;19929;-86
2024/01/20 06:32:50;;;;;;;;;;;;;;;;;;4993596;28;20000;-79
2024/01/20 06:35:17;;;;;;;;;;;;;;;;;;4992451;28;19965;-79
2024/01/20 06:37:44;;;;;;;;;;;;;;;;;;4992853;28;19933;-76
2024/01/20 06:40:11;;;;;;;;;;;;;;;;;;4991679;28;19987;-74
2024/01/20 06:42:38;;;;;;;;;;;;;;;;;;4991400;28;20622;-79
2024/01/20 06:45:05;;;;;;;;;;;;;;;;;;4992157;28;19972;-81
2024/01/20 06:47:32;;;;;;;;;;;;;;;;;;4984163;28;19929;-82
2024/01/20 06:50:00;;;;;;;;;;;;;;;;;;4993094;28;19932;-81
2024/01/20 06:52:29;;;;;;;;;;;;;;;;;;4992922;28;19925;-81
2024/01/20 06:54:56;;;;;;;;;;;;;;;;;;4994006;28;19925;-80
2024/01/20 06:57:23;;;;;;;;;;;;;;;;;;4994057;28;19983;-82
2024/01/20 06:59:50;;;;;;;;;;;;;;;;;;4992533;28;19925;-79
2024/01/20 07:02:17;;;;;;;;;;;;;;;;;;4991849;28;19965;-82
2024/01/20 07:04:44;;;;;;;;;;;;;;;;;;4991495;28;20006;-83
2024/01/20 07:07:11;;;;;;;;;;;;;;;;;;4993134;28;19926;-86
2024/01/20 07:09:38;;;;;;;;;;;;;;;;;;4994055;28;19972;-85
2024/01/20 07:12:05;;;;;;;;;;;;;;;;;;4993173;28;19975;-85
2024/01/20 07:14:32;;;;;;;;;;;;;;;;;;4994986;28;20285;-85
2024/01/20 07:16:59;;;;;;;;;;;;;;;;;;4995091;28;19955;-82
2024/01/20 07:19:26;;;;;;;;;;;;;;;;;;4998196;28;20422;-82
2024/01/20 07:21:53;;;;;;;;;;;;;;;;;;5004474;28;19930;-81
2024/01/20 07:24:20;;;;;;;;;;;;;;;;;;4996154;28;19926;-80
2024/01/20 07:26:47;;;;;;;;;;;;;;;;;;4993132;28;19932;-79
2024/01/20 07:29:15;;;;;;;;;;;;;;;;;;4992939;28;19926;-80
2024/01/20 07:31:42;;;;;;;;;;;;;;;;;;4990017;28;19933;-80
2024/01/20 07:34:09;;;;;;;;;;;;;;;;;;4998700;28;19926;-83
2024/01/20 07:36:37;;;;;;;;;;;;;;;;;;5001453;28;19926;-78
2024/01/20 07:39:04;;;;;;;;;;;;;;;;;;4996606;28;19938;-82
2024/01/20 07:41:31;;;;;;;;;;;;;;;;;;4992432;28;20002;-81
2024/01/20 07:43:58;;;;;;;;;;;;;;;;;;4992551;28;19926;-80
2024/01/20 07:46:25;;;;;;;;;;;;;;;;;;5046125;28;19924;-82
2024/01/20 07:48:53;;;;;;;;;;;;;;;;;;5022510;28;19987;-78
2024/01/20 07:51:20;;;;;;;;;;;;;;;;;;4991303;28;20308;-81
2024/01/20 07:53:47;;;;;;;;;;;;;;;;;;4993441;28;19972;-83
2024/01/20 07:56:16;;;;;;;;;;;;;;;;;;4992862;28;19930;-82
2024/01/20 07:58:43;;;;;;;;;;;;;;;;;;4993221;28;20023;-82
2024/01/20 08:01:10;;;;;;;;;;;;;;;;;;4993906;28;19960;-81
2024/01/20 08:03:37;;;;;;;;;;;;;;;;;;4993523;28;19926;-83
2024/01/20 08:06:04;;;;;;;;;;;;;;;;;;4991126;28;19934;-83
2024/01/20 08:08:31;;;;;;;;;;;;;;;;;;4991077;28;19925;-78
2024/01/20 08:10:58;;;;;;;;;;;;;;;;;;4988064;28;19979;-80
2024/01/20 08:13:25;;;;;;;;;;;;;;;;;;4991024;28;19933;-72
2024/01/20 08:15:52;;;;;;;;;;;;;;;;;;4989371;28;20358;-72
2024/01/20 08:18:19;;;;;;;;;;;;;;;;;;4989744;28;19978;-75
2024/01/20 08:20:46;;;;;;;;;;;;;;;;;;4990547;28;19926;-73
2024/01/20 08:23:13;;;;;;;;;;;;;;;;;;4988193;28;19986;-73
2024/01/20 08:25:40;;;;;;;;;;;;;;;;;;4989133;28;20296;-70
2024/01/20 08:28:07;;;;;;;;;;;;;;;;;;4992271;28;19926;-70
2024/01/20 08:30:34;;;;;;;;;;;;;;;;;;4989939;28;19929;-70
2024/01/20 08:33:01;;;;;;;;;;;;;;;;;;4988751;28;19929;-70
2024/01/20 08:35:28;;;;;;;;;;;;;;;;;;4986532;28;19991;-70
2024/01/20 08:37:55;;;;;;;;;;;;;;;;;;4984889;28;20373;-68
2024/01/20 08:40:22;;;;;;;;;;;;;;;;;;4989056;28;19926;-68
2024/01/20 08:42:50;;;;;;;;;;;;;;;;;;4989167;28;20004;-68
2024/01/20 08:45:17;;;;;;;;;;;;;;;;;;4983675;28;19971;-68
2024/01/20 08:47:44;;;;;;;;;;;;;;;;;;4979647;28;19933;-68
2024/01/20 08:50:11;;;;;;;;;;;;;;;;;;4983267;28;20405;-68
2024/01/20 08:52:39;;;;;;;;;;;;;;;;;;4980369;28;19970;-71
2024/01/20 08:55:06;;;;;;;;;;;;;;;;;;4993219;28;19924;-71
2024/01/20 08:57:33;;;;;;;;;;;;;;;;;;4978188;28;19930;-71
2024/01/20 09:00:00;;;;;;;;;;;;;;;;;;4984541;28;20025;-70
2024/01/20 09:02:27;;;;;;;;;;;;;;;;;;4990831;28;20447;-70
2024/01/20 09:04:54;;;;;;;;;;;;;;;;;;4987273;28;20021;-71
2024/01/20 09:07:21;;;;;;;;;;;;;;;;;;4978374;28;19971;-72
2024/01/20 09:09:48;;;;;;;;;;;;;;;;;;4980706;28;19930;-70
2024/01/20 09:12:15;;;;;;;;;;;;;;;;;;4989582;28;19934;-71
2024/01/20 09:14:42;;;;;;;;;;;;;;;;;;4981783;28;19995;-71
2024/01/20 09:17:10;;;;;;;;;;;;;;;;;;4974548;28;19934;-71
2024/01/20 09:19:37;;;;;;;;;;;;;;;;;;4979255;28;19930;-70
2024/01/20 09:22:04;;;;;;;;;;;;;;;;;;4980753;28;19938;-71
2024/01/20 09:24:31;;;;;;;;;;;;;;;;;;4994569;28;19930;-72
2024/01/20 09:26:58;;;;;;;;;;;;;;;;;;4982876;28;20384;-71
2024/01/20 09:29:25;;;;;;;;;;;;;;;;;;4980869;28;19937;-70
2024/01/20 09:31:52;;;;;;;;;;;;;;;;;;4977656;28;20040;-72
2024/01/20 09:34:19;;;;;;;;;;;;;;;;;;4977933;28;19929;-72
2024/01/20 09:36:46;;;;;;;;;;;;;;;;;;4984694;28;19977;-72
2024/01/20 09:39:13;;;;;;;;;;;;;;;;;;4983491;28;19940;-72
2024/01/20 09:41:41;;;;;;;;;;;;;;;;;;4973507;28;20033;-71
2024/01/20 09:44:08;;;;;;;;;;;;;;;;;;4976151;28;19930;-71
2024/01/20 09:46:37;;;;;;;;;;;;;;;;;;4979731;28;20281;-72
2024/01/20 09:49:04;;;;;;;;;;;;;;;;;;4976366;28;19973;-73
2024/01/20 09:51:31;;;;;;;;;;;;;;;;;;4983670;28;19926;-72
2024/01/20 09:53:59;;;;;;;;;;;;;;;;;;4980861;28;20355;-71
2024/01/20 09:56:26;;;;;;;;;;;;;;;;;;4987788;28;19980;-70
2024/01/20 09:58:53;;;;;;;;;;;;;;;;;;4974939;28;19926;-70
2024/01/20 10:01:20;;;;;;;;;;;;;;;;;;4976664;28;20314;-70
2024/01/20 10:03:47;;;;;;;;;;;;;;;;;;4980919;28;19979;-70
2024/01/20 10:06:14;;;;;;;;;;;;;;;;;;4980199;28;19932;-73
2024/01/20 10:08:41;;;;;;;;;;;;;;;;;;4980704;28;20393;-73
2024/01/20 10:11:08;;;;;;;;;;;;;;;;;;4979585;28;19934;-73
2024/01/20 10:13:36;;;;;;;;;;;;;;;;;;4976335;28;20353;-72
2024/01/20 10:16:03;;;;;;;;;;;;;;;;;;4988229;28;20042;-71
2024/01/20 10:18:30;;;;;;;;;;;;;;;;;;4977567;28;19934;-72
2024/01/20 10:20:57;;;;;;;;;;;;;;;;;;4977326;28;19934;-71
2024/01/20 10:23:25;;;;;;;;;;;;;;;;;;4977780;28;19933;-72
2024/01/20 10:25:52;;;;;;;;;;;;;;;;;;4971240;28;19934;-72
2024/01/20 10:28:19;;;;;;;;;;;;;;;;;;4977871;28;20079;-72
2024/01/20 10:30:46;;;;;;;;;;;;;;;;;;4974096;28;20029;-71
2024/01/20 10:33:14;;;;;;;;;;;;;;;;;;4976676;28;20029;-71
2024/01/20 10:35:41;;;;;;;;;;;;;;;;;;4974905;28;19926;-71
2024/01/20 10:38:08;;;;;;;;;;;;;;;;;;4974819;28;19925;-71
2024/01/20 10:40:35;;;;;;;;;;;;;;;;;;4976781;28;20391;-70
2024/01/20 10:43:02;;;;;;;;;;;;;;;;;;4982346;28;19934;-71
2024/01/20 10:45:29;;;;;;;;;;;;;;;;;;4974058;28;20508;-69
2024/01/20 10:47:56;;;;;;;;;;;;;;;;;;4966987;28;20646;-71
2024/01/20 10:50:23;;;;;;;;;;;;;;;;;;4967405;28;20407;-71
2024/01/20 10:52:50;;;;;;;;;;;;;;;;;;4982426;28;20416;-71
2024/01/20 10:55:18;;;;;;;;;;;;;;;;;;4978683;28;20288;-68
2024/01/20 10:57:45;;;;;;;;;;;;;;;;;;4978130;28;19938;-70
2024/01/20 11:00:12;;;;;;;;;;;;;;;;;;4975536;28;19980;-69
2024/01/20 11:02:39;;;;;;;;;;;;;;;;;;4974679;28;19929;-70
2024/01/20 11:05:06;;;;;;;;;;;;;;;;;;4975205;28;20013;-71
2024/01/20 11:07:33;;;;;;;;;;;;;;;;;;4973925;28;20073;-70
2024/01/20 11:10:00;;;;;;;;;;;;;;;;;;4988927;28;19973;-70
2024/01/20 11:12:27;;;;;;;;;;;;;;;;;;4976208;28;20470;-70
2024/01/20 11:14:55;;;;;;;;;;;;;;;;;;4981241;28;19934;-67
2024/01/20 11:17:22;;;;;;;;;;;;;;;;;;4975269;28;19925;-70
2024/01/20 11:19:49;;;;;;;;;;;;;;;;;;4976823;28;19952;-69
2024/01/20 11:22:16;;;;;;;;;;;;;;;;;;4982591;28;19934;-69
2024/01/20 11:24:43;;;;;;;;;;;;;;;;;;4974787;28;19926;-70
2024/01/20 11:27:10;;;;;;;;;;;;;;;;;;4977098;28;19949;-70
2024/01/20 11:29:37;;;;;;;;;;;;;;;;;;4977845;28;19987;-70
2024/01/20 11:32:05;;;;;;;;;;;;;;;;;;4976576;28;19926;-70
2024/01/20 11:34:32;;;;;;;;;;;;;;;;;;4984401;28;19925;-70
2024/01/20 11:37:00;;;;;;;;;;;;;;;;;;4970160;28;19934;-70
2024/01/20 11:39:28;;;;;;;;;;;;;;;;;;4976762;28;19932;-70
2024/01/20 11:41:55;;;;;;;;;;;;;;;;;;4976530;28;19925;-70
2024/01/20 11:44:22;;;;;;;;;;;;;;;;;;4978340;28;20130;-70
2024/01/20 11:46:49;;;;;;;;;;;;;;;;;;4974229;28;20007;-70
2024/01/20 11:49:16;;;;;;;;;;;;;;;;;;4973494;28;20068;-70
2024/01/20 11:51:43;;;;;;;;;;;;;;;;;;4975777;28;20014;-70
2024/01/20 11:54:11;;;;;;;;;;;;;;;;;;4984473;28;19937;-70
2024/01/20 11:56:38;;;;;;;;;;;;;;;;;;4984778;28;19971;-69
2024/01/20 11:59:05;;;;;;;;;;;;;;;;;;4982720;28;20351;-70
2024/01/20 12:01:32;;;;;;;;;;;;;;;;;;4975959;28;19930;-70
2024/01/20 12:04:00;;;;;;;;;;;;;;;;;;4981512;28;19926;-70
2024/01/20 12:06:27;;;;;;;;;;;;;;;;;;4980376;28;20051;-70
2024/01/20 12:08:54;;;;;;;;;;;;;;;;;;4978790;28;19976;-70
2024/01/20 12:11:21;;;;;;;;;;;;;;;;;;4976090;28;20358;-70
2024/01/20 12:13:48;;;;;;;;;;;;;;;;;;4972183;28;19933;-70
2024/01/20 12:16:15;;;;;;;;;;;;;;;;;;4974051;28;20300;-70
2024/01/20 12:18:42;;;;;;;;;;;;;;;;;;4976614;28;20941;-70
2024/01/20 12:21:09;;;;;;;;;;;;;;;;;;4974489;28;19970;-69
2024/01/20 12:23:36;;;;;;;;;;;;;;;;;;4976821;28;19973;-70
2024/01/20 12:26:03;;;;;;;;;;;;;;;;;;4974997;28;19969;-70
2024/01/20 12:28:30;;;;;;;;;;;;;;;;;;4975445;28;19926;-70
2024/01/20 12:30:57;;;;;;;;;;;;;;;;;;4973145;28;19942;-69
2024/01/20 12:33:24;;;;;;;;;;;;;;;;;;4971389;28;20422;-69
2024/01/20 12:35:51;;;;;;;;;;;;;;;;;;4973277;28;19998;-69
2024/01/20 12:38:18;;;;;;;;;;;;;;;;;;4977778;28;19994;-70
2024/01/20 12:40:45;;;;;;;;;;;;;;;;;;4970460;28;19941;-69
2024/01/20 12:43:12;;;;;;;;;;;;;;;;;;4972184;28;20288;-70
2024/01/20 12:45:39;;;;;;;;;;;;;;;;;;4968280;28;19926;-69
2024/01/20 12:48:06;;;;;;;;;;;;;;;;;;4966513;28;19978;-70
2024/01/20 12:50:33;;;;;;;;;;;;;;;;;;4973206;28;19987;-68
2024/01/20 12:53:00;;;;;;;;;;;;;;;;;;4977414;28;19986;-69
2024/01/20 12:55:28;;;;;;;;;;;;;;;;;;4980538;28;19945;-69
2024/01/20 12:57:55;;;;;;;;;;;;;;;;;;4979229;28;19941;-70
2024/01/20 13:00:22;;;;;;;;;;;;;;;;;;4973729;28;19991;-68
2024/01/20 13:02:49;;;;;;;;;;;;;;;;;;4969638;28;19983;-72
2024/01/20 13:05:17;;;;;;;;;;;;;;;;;;4982879;28;19930;-71
2024/01/20 13:07:44;;;;;;;;;;;;;;;;;;4978137;28;20012;-71
2024/01/20 13:10:11;;;;;;;;;;;;;;;;;;4978904;28;19941;-70
2024/01/20 13:12:38;;;;;;;;;;;;;;;;;;4971373;28;19945;-71
2024/01/20 13:15:05;;;;;;;;;;;;;;;;;;4987812;28;20539;-71
2024/01/20 13:17:32;;;;;;;;;;;;;;;;;;4976151;28;20327;-70
2024/01/20 13:19:59;;;;;;;;;;;;;;;;;;4982382;28;19933;-70
2024/01/20 13:22:26;;;;;;;;;;;;;;;;;;4982188;28;20395;-70
2024/01/20 13:24:56;;;;;;;;;;;;;;;;;;4979226;28;19980;-70
2024/01/20 13:27:24;;;;;;;;;;;;;;;;;;4965760;28;20002;-71
2024/01/20 13:29:51;;;;;;;;;;;;;;;;;;4975918;28;20133;-71
2024/01/20 13:32:18;;;;;;;;;;;;;;;;;;4978556;28;19933;-70
2024/01/20 13:34:45;;;;;;;;;;;;;;;;;;4982447;28;19933;-69
2024/01/20 13:37:12;;;;;;;;;;;;;;;;;;4972544;28;19987;-69
2024/01/20 13:39:41;;;;;;;;;;;;;;;;;;4969163;28;19947;-69
2024/01/20 13:42:09;;;;;;;;;;;;;;;;;;4964685;28;19930;-72
2024/01/20 13:44:36;;;;;;;;;;;;;;;;;;4970648;28;25623;-70
2024/01/20 13:47:06;;;;;;;;;;;;;;;;;;4966614;28;20377;-70
2024/01/20 13:49:33;;;;;;;;;;;;;;;;;;4970613;28;19951;-70
2024/01/20 13:52:00;;;;;;;;;;;;;;;;;;4971717;28;19930;-71
2024/01/20 13:54:27;;;;;;;;;;;;;;;;;;4977629;28;19987;-71
2024/01/20 13:56:54;;;;;;;;;;;;;;;;;;4969195;28;19978;-69
2024/01/20 13:59:25;;;;;;;;;;;;;;;;;;4983183;28;20530;-67
2024/01/20 14:01:53;;;;;;;;;;;;;;;;;;4961862;28;19938;-67
2024/01/20 14:04:20;;;;;;;;;;;;;;;;;;4966861;28;19933;-68
2024/01/20 14:06:47;;;;;;;;;;;;;;;;;;4979527;28;20002;-66
2024/01/20 14:09:14;;;;;;;;;;;;;;;;;;4983468;28;20393;-63
2024/01/20 14:11:41;;;;;;;;;;;;;;;;;;4966590;28;20035;-62
2024/01/20 14:14:08;;;;;;;;;;;;;;;;;;4978565;28;19944;-62
2024/01/20 14:16:36;;;;;;;;;;;;;;;;;;4987359;28;19925;-63
2024/01/20 14:19:05;;;;;;;;;;;;;;;;;;4993895;28;20382;-63
2024/01/20 14:21:32;;;;;;;;;;;;;;;;;;4979417;28;19934;-61
2024/01/20 14:23:59;;;;;;;;;;;;;;;;;;4983694;28;19930;-63
2024/01/20 14:26:27;;;;;;;;;;;;;;;;;;4986444;28;19940;-62
2024/01/20 14:28:54;;;;;;;;;;;;;;;;;;4985599;28;20093;-63
2024/01/20 14:31:22;;;;;;;;;;;;;;;;;;4987420;28;19926;-64
2024/01/20 14:33:50;;;;;;;;;;;;;;;;;;4986289;28;19933;-62
2024/01/20 14:36:18;;;;;;;;;;;;;;;;;;4987806;28;19925;-63
2024/01/20 14:38:46;;;;;;;;;;;;;;;;;;4989063;28;19926;-63
2024/01/20 14:41:14;;;;;;;;;;;;;;;;;;4995302;28;19976;-62
2024/01/20 14:43:41;;;;;;;;;;;;;;;;;;4981529;28;19948;-62
2024/01/20 14:46:10;;;;;;;;;;;;;;;;;;4981139;28;19938;-64
2024/01/20 14:48:39;;;;;;;;;;;;;;;;;;4986919;28;19934;-63
2024/01/20 14:51:06;;;;;;;;;;;;;;;;;;4986150;28;20389;-63
2024/01/20 14:53:33;;;;;;;;;;;;;;;;;;4991490;28;19926;-64
2024/01/20 14:56:00;;;;;;;;;;;;;;;;;;4984525;28;19930;-63
2024/01/20 14:58:28;;;;;;;;;;;;;;;;;;4989325;28;19930;-63
2024/01/20 15:00:55;;;;;;;;;;;;;;;;;;4982276;28;19979;-64
2024/01/20 15:03:22;;;;;;;;;;;;;;;;;;4987997;28;19930;-64
2024/01/20 15:05:50;;;;;;;;;;;;;;;;;;4984221;28;19926;-63
2024/01/20 15:08:17;;;;;;;;;;;;;;;;;;4981409;28;19972;-64
2024/01/20 15:10:44;;;;;;;;;;;;;;;;;;4978752;28;19926;-63
2024/01/20 15:13:13;;;;;;;;;;;;;;;;;;4983336;28;20376;-64
2024/01/20 15:15:40;;;;;;;;;;;;;;;;;;4980809;28;19926;-63
2024/01/20 15:18:07;;;;;;;;;;;;;;;;;;4987189;28;19965;-63
2024/01/20 15:20:35;;;;;;;;;;;;;;;;;;4977770;28;20384;-64
2024/01/20 15:23:04;;;;;;;;;;;;;;;;;;4972063;28;19933;-66
2024/01/20 15:25:31;;;;;;;;;;;;;;;;;;4979570;28;20445;-65
2024/01/20 15:27:59;;;;;;;;;;;;;;;;;;4976974;28;20007;-63
2024/01/20 15:30:26;;;;;;;;;;;;;;;;;;4974395;28;19976;-63
2024/01/20 15:32:53;;;;;;;;;;;;;;;;;;4979919;28;19938;-64
2024/01/20 15:35:20;;;;;;;;;;;;;;;;;;4977094;28;19976;-67
2024/01/20 15:37:47;;;;;;;;;;;;;;;;;;4984210;28;19975;-68
2024/01/20 15:40:15;;;;;;;;;;;;;;;;;;4984420;28;19933;-68
2024/01/20 15:42:42;;;;;;;;;;;;;;;;;;4989627;28;20359;-65
2024/01/20 15:45:09;;;;;;;;;;;;;;;;;;5029232;28;19977;-66
2024/01/20 15:47:36;;;;;;;;;;;;;;;;;;4992397;28;19940;-65
2024/01/20 15:50:03;;;;;;;;;;;;;;;;;;5018584;28;19928;-65
2024/01/20 15:52:30;;;;;;;;;;;;;;;;;;4986935;28;19969;-62
2024/01/20 15:54:59;;;;;;;;;;;;;;;;;;4979121;28;20571;-62
2024/01/20 15:57:26;;;;;;;;;;;;;;;;;;4982457;28;19930;-63
2024/01/20 15:59:53;;;;;;;;;;;;;;;;;;4988728;28;19926;-64
2024/01/20 16:02:20;;;;;;;;;;;;;;;;;;4990938;28;19986;-63
2024/01/20 16:04:47;;;;;;;;;;;;;;;;;;4977741;28;19962;-63
2024/01/20 16:07:14;;;;;;;;;;;;;;;;;;4979857;28;20019;-64
2024/01/20 16:09:42;;;;;;;;;;;;;;;;;;4997999;28;20005;-64
2024/01/20 16:12:09;;;;;;;;;;;;;;;;;;4978377;28;19933;-65
2024/01/20 16:14:36;;;;;;;;;;;;;;;;;;4993727;28;20364;-64
2024/01/20 16:17:03;;;;;;;;;;;;;;;;;;5001773;28;20422;-64
2024/01/20 16:19:30;;;;;;;;;;;;;;;;;;4982591;28;20026;-64
2024/01/20 16:21:57;;;;;;;;;;;;;;;;;;5000416;28;19926;-64
2024/01/20 16:24:24;;;;;;;;;;;;;;;;;;4985014;28;19926;-65
2024/01/20 16:26:51;;;;;;;;;;;;;;;;;;4975589;28;19981;-64
2024/01/20 16:29:19;;;;;;;;;;;;;;;;;;4985938;28;20020;-64
2024/01/20 16:31:47;;;;;;;;;;;;;;;;;;4982932;28;20433;-65
2024/01/20 16:34:14;;;;;;;;;;;;;;;;;;4985946;28;19929;-64
2024/01/20 16:36:41;;;;;;;;;;;;;;;;;;4979251;28;19926;-67
2024/01/20 16:39:09;;;;;;;;;;;;;;;;;;4976379;28;19994;-66
2024/01/20 16:41:36;;;;;;;;;;;;;;;;;;4976828;28;22083;-64
2024/01/20 16:44:04;;;;;;;;;;;;;;;;;;4977098;28;19934;-68